Terminal Aerodrome Forecast
Issued by NWS Pocatello, ID

Home | Current Version | Previous Version | Text Only | Print | Product List | Glossary On
Versions: 1 2 3 4 5 6 7 8 9 10 11 12 13 14 15
000
FTUS45 KPIH 251120
TAFPIH
TAF
KPIH 251120Z 2512/2612 VRB04KT P6SM SCT040 BKN070
     FM251700 25006KT P6SM SCT040
     FM252100 31006KT P6SM FEW050
     FM260300 18006KT P6SM SCT060 SCT180
     FM260600 18006KT P6SM BKN060 BKN180=

USA.gov is the U.S. government's official web portal to all federal, state and local government web resources and services.